Latest Coastal Weather Observations for Derby

IDW60701

Issued at 9:33 pm WST Saturday 25 March 2017 (issued every 10 minutes, with the page automatically refreshed every 10 minutes)

About coastal observations | Map of coastal stations | Coastal observations for WA | Marine services | Other Formats
Station Details ID: 003032 Name: DERBY AERO Lat: -17.37 Lon: 123.66 Height: 6.2 m
Data from the previous 72 hours. | See also: Recent months at Derby
Date/Time
WST
Temp
°C
Wind Pressure Rain since
9am
mm
Weather Cloud Vis
km
Sea
Height
m
Swell
Dir  Spd
kts
Gust
kts
hPa Trend Height
m
Period
s
Dir
25/09:30pm 28.3 N 6 7 1008.3 - 0.0 - - - - - - -
25/09:00pm 28.4 N 5 7 1008.6 - 0.0 - - - - - - -
25/08:30pm 28.9 N 7 9 1009.0 - 0.0 - - - - - - -
25/08:00pm 29.2 N 8 10 1008.6 - 0.0 - - - - - - -
25/07:30pm 29.2 NNW 9 10 1007.8 - 0.0 - - - - - - -
25/07:00pm 29.4 NNW 8 9 1007.4 - 0.0 - - - - - - -
25/06:30pm 29.0 NNW 5 7 1006.9 - 0.0 - - - - - - -
25/06:00pm 29.3 E 9 16 1006.6 - 0.0 - - - - - - -
25/05:30pm 30.2 NNW 11 13 1005.6 - 0.0 - - - - - - -
25/05:00pm 30.8 NNW 11 13 1005.2 - 0.0 - - - - - - -
25/04:30pm 31.2 NW 10 12 1005.0 - 0.0 - - - - - - -
25/04:00pm 32.9 NW 10 14 1004.5 - 0.0 - - - - - - -
25/03:30pm 33.0 NW 10 13 1004.5 - 0.0 - - - - - - -
25/03:00pm 33.1 NW 12 17 1004.4 - 0.0 - - - - - - -
25/02:30pm 33.6 NW 7 11 1004.5 - 0.0 - - - - - - -
25/02:00pm 33.8 WNW 4 9 1005.1 - 0.0 - - - - - - -
25/01:30pm 33.5 NW 4 7 1005.7 - 0.0 - - - - - - -
25/01:00pm 32.9 NW 6 10 1006.1 - 0.0 - - - - - - -
25/12:30pm 32.9 WNW 9 12 1006.9 - 0.0 - - - - - - -
25/12:00pm 32.4 WNW 8 11 1007.3 - 0.0 - - - - - - -
25/11:30am 32.8 NW 5 9 1007.7 - 0.0 - - - - - - -
25/11:00am 32.2 WSW 6 12 1008.3 - 0.0 - - - - - - -
25/10:30am 31.5 SW 4 6 1008.6 - 0.0 - - - - - - -
25/10:00am 31.9 SW 4 6 1009.1 - 0.0 - - - - - - -
25/09:30am 31.6 W 4 6 1009.1 - 0.0 - - - - - - -
25/09:00am 30.2 S 3 5 1009.2 - 0.2 - - - - - - -
25/08:30am 29.9 SSW 4 6 1008.9 - 0.2 - - - - - - -
25/08:00am 29.2 S 5 6 1008.8 - 0.2 - - - - - - -
25/07:30am 29.6 NE 1 5 1008.8 - 0.2 - - - - - - -
25/07:00am 29.1 CALM 0 0 1008.5 - 0.2 - - - - - - -
25/06:30am 27.3 NNE 1 3 1008.4 - 0.2 - - - - - - -
25/06:00am 26.8 CALM 0 0 1008.1 - 0.0 - - - - - - -
25/05:30am 26.9 ENE 3 4 1007.9 - 0.0 - - - - - - -
25/05:00am 27.0 ESE 4 5 1007.7 - 0.0 - - - - - - -
25/04:30am 27.4 SSW 2 3 1007.8 - 0.0 - - - - - - -
25/04:00am 27.3 SW 4 5 1007.6 - 0.0 - - - - - - -
25/03:30am 27.0 WSW 5 6 1007.4 - 0.0 - - - - - - -
25/03:00am 27.0 WSW 5 6 1007.1 - 0.0 - - - - - - -
25/02:30am 27.4 WSW 1 3 1007.2 - 0.0 - - - - - - -
25/02:00am 27.4 WSW 1 3 1007.6 - 0.0 - - - - - - -
25/01:30am 27.3 WSW 3 5 1007.8 - 0.0 - - - - - - -
25/01:00am 27.6 WNW 6 8 1007.8 - 0.0 - - - - - - -
25/12:30am 27.8 W 7 9 1007.9 - 0.0 - - - - - - -
25/12:00am 28.0 W 8 11 1008.1 - 0.0 - - - - - - -
 
Date/Time
WST
Temp
°C
Wind Pressure Rain since
9am
mm
Weather Cloud Vis
km
Sea
Height
m
Swell
Dir  Spd
kts
Gust
kts
hPa Trend Height
m
Period
s
Dir
24/11:30pm 27.8 W 6 7 1008.2 - 0.0 - - - - - - -
24/11:00pm 27.9 W 7 9 1008.5 - 0.0 - - - - - - -
24/10:30pm 28.2 W 8 10 1008.6 - 0.0 - - - - - - -
24/10:00pm 28.6 WNW 9 12 1008.8 - 0.0 - - - - - - -
24/09:30pm 28.7 W 8 11 1008.7 - 0.0 - - - - - - -
24/09:00pm 28.6 NW 5 5 1008.2 - 0.0 - - - - - - -
24/08:30pm 28.9 NNW 5 7 1008.1 - 0.0 - - - - - - -
24/08:00pm 28.9 NW 6 7 1007.9 - 0.0 - - - - - - -
24/07:30pm 29.0 NW 6 9 1007.4 - 0.0 - - - - - - -
24/07:00pm 29.1 NW 7 9 1006.6 - 0.0 - - - - - - -
24/06:30pm 29.4 NW 8 10 1006.3 - 0.0 - - - - - - -
24/06:00pm 29.6 NW 9 12 1005.9 - 0.0 - - - - - - -
24/05:30pm 30.6 NW 10 12 1005.6 - 0.0 - - - - - - -
24/05:00pm 31.7 NW 12 15 1005.4 - 0.0 - - - - - - -
24/04:30pm 33.1 NW 10 12 1005.1 - 0.0 - - - - - - -
24/04:00pm 33.6 NNW 8 11 1005.4 - 0.0 - - - - - - -
24/03:30pm 33.9 NNW 8 10 1005.5 - 0.0 - - - - - - -
24/03:00pm 34.1 NNW 8 11 1005.7 - 0.0 - - - - - - -
24/02:30pm 34.4 NNW 7 11 1005.9 - 0.0 - - - - - - -
24/02:00pm 33.4 N 6 10 1006.5 - 0.0 - - - - - - -
24/01:30pm 34.0 NNW 7 10 1007.1 - 0.0 - - - - - - -
24/01:00pm 33.5 NW 6 9 1007.5 - 0.0 - - - - - - -
24/12:30pm 33.2 NNW 8 11 1007.8 - 0.0 - - - - - - -
24/12:00pm 33.7 NNW 7 10 1008.1 - 0.0 - - - - - - -
24/11:30am 32.5 NNW 8 11 1008.6 - 0.0 - - - - - - -
24/11:00am 32.1 NW 8 12 1009.2 - 0.0 - - - - - - -
24/10:30am 32.3 NNW 8 11 1009.6 - 0.0 - - - - - - -
24/10:00am 31.7 NW 9 12 1009.9 - 0.0 - - - - - - -
24/09:30am 30.6 NW 10 13 1010.1 - 0.0 - - - - - - -
24/09:00am 30.7 NNW 10 13 1010.2 - 0.8 Recent precip. - - - - - -
24/08:30am 31.1 NW 10 13 1010.1 - 0.6 - - - - - - -
24/08:00am 31.0 NW 11 14 1010.1 - 0.6 - - - - - - -
24/07:30am 29.8 NW 9 12 1009.7 - 0.6 - - - - - - -
24/07:00am 28.6 NW 9 11 1009.5 - 0.6 - - - - - - -
24/06:30am 27.6 N 4 6 1009.2 - 0.6 - - - - - - -
24/06:00am 27.1 NNW 2 5 1008.5 - 0.6 - - - - - - -
24/05:30am 26.9 NNW 2 3 1008.3 - 0.6 - - - - - - -
24/05:00am 26.9 CALM 0 0 1008.3 - 0.6 - - - - - - -
24/04:30am 26.9 NE 3 5 1008.1 - 0.6 - - - - - - -
24/04:00am 26.8 NE 2 3 1007.9 - 0.6 - - - - - - -
24/03:30am 27.0 NNW 5 6 1007.7 - 0.6 - - - - - - -
24/03:00am 27.2 NNW 6 7 1007.7 - 0.6 - - - - - - -
24/02:30am 27.1 N 3 4 1008.0 - 0.6 - - - - - - -
24/02:00am 27.1 NNW 5 7 1008.0 - 0.6 - - - - - - -
24/01:30am 27.4 NW 7 8 1008.2 - 0.6 - - - - - - -
24/01:00am 27.4 NNW 8 10 1008.4 - 0.6 - - - - - - -
24/12:30am 27.7 NW 10 12 1008.7 - 0.6 - - - - - - -
24/12:00am 28.3 NW 11 13 1009.0 - 0.6 - - - - - - -
 
Date/Time
WST
Temp
°C
Wind Pressure Rain since
9am
mm
Weather Cloud Vis
km
Sea
Height
m
Swell
Dir  Spd
kts
Gust
kts
hPa Trend Height
m
Period
s
Dir
23/11:30pm 28.2 NNW 10 12 1009.2 - 0.6 - - - - - - -
23/11:00pm 28.0 NNW 10 13 1009.3 - 0.6 - - - - - - -
23/10:30pm 27.8 NNW 10 12 1009.1 - 0.6 - - - - - - -
23/10:00pm 28.0 NNW 10 11 1009.5 - 0.6 - - - - - - -
23/09:30pm 28.1 NNW 13 17 1009.7 - 0.4 - - - - - - -
23/09:00pm 28.2 NNW 12 15 1009.5 - 0.4 - - - - - - -
23/08:30pm 28.7 NNW 13 17 1009.1 - 0.4 - - - - - - -
23/08:00pm 28.4 NNW 11 13 1008.8 - 0.4 - - - - - - -
23/07:30pm 28.5 NNW 10 12 1008.6 - 0.4 - - - - - - -
23/07:00pm 28.7 NNW 11 15 1008.5 - 0.4 - - - - - - -
23/06:30pm 28.8 NNW 13 16 1007.8 - 0.4 - - - - - - -
23/06:00pm 28.8 NNW 11 13 1007.5 - 0.4 - - - - - - -
23/05:30pm 28.9 N 7 9 1007.0 - 0.4 - - - - - - -
23/05:00pm 29.2 N 10 13 1007.0 - 0.4 - - - - - - -
23/04:30pm 29.4 NNW 14 17 1007.1 - 0.4 - - - - - - -
23/04:00pm 29.6 NNW 15 21 1007.1 - 0.4 - - - - - - -
23/03:30pm 30.0 NNW 16 20 1007.0 - 0.4 - - - - - - -
23/03:00pm 30.8 NNW 17 22 1007.2 - 0.4 - - - - - - -
23/02:30pm 30.6 NNW 21 27 1007.5 - 0.4 - - - - - - -
23/02:00pm 31.2 NNW 19 23 1007.6 - 0.4 - - - - - - -
23/01:30pm 31.5 NNW 19 23 1007.7 - 0.4 - - - - - - -
23/01:00pm 32.1 NNW 16 22 1008.0 - 0.2 - - - - - - -
23/12:30pm 31.4 NNW 19 23 1008.3 - 0.2 - - - - - - -
23/12:00pm 31.8 NNW 19 23 1008.3 - 0.2 - - - - - - -
23/11:30am 32.0 NNW 16 23 1008.6 - 0.2 - - - - - - -
23/11:00am 32.0 NNW 15 20 1008.8 - 0.2 - - - - - - -
23/10:30am 32.0 NNW 16 20 1009.3 - 0.2 - - - - - - -
23/10:00am 31.5 NNW 13 18 1009.3 - 0.2 - - - - - - -
23/09:30am 31.4 NNW 12 17 1009.5 - 0.0 - - - - - - -
23/09:00am 30.8 NNW 13 17 1009.8 - 3.0 - - - - - - -
23/08:30am 30.4 NNW 13 17 1009.9 - 3.0 - - - - - - -
23/08:00am 29.9 N 11 13 1009.8 - 3.0 - - - - - - -
23/07:30am 29.2 N 8 11 1009.4 - 3.0 - - - - - - -
23/07:00am 28.8 N 7 10 1009.2 - 3.0 - - - - - - -
23/06:30am 27.8 N 7 9 1009.0 - 3.0 - - - - - - -
23/06:00am 27.4 N 8 10 1008.8 - 3.0 Recent precip. - - - - - -
23/05:30am 27.5 N 9 12 1008.5 - 3.0 - - - - - - -
23/05:00am 27.8 N 9 15 1008.2 - 2.8 - - - - - - -
23/04:30am 27.9 NNW 12 17 1008.0 - 2.8 - - - - - - -
23/04:00am 28.0 NNW 14 18 1007.8 - 2.8 - - - - - - -
23/03:30am 28.1 NNW 13 19 1007.7 - 2.8 - - - - - - -
23/03:00am 28.1 NNW 13 17 1007.3 - 2.8 - - - - - - -
23/02:30am 28.0 NNW 12 15 1007.3 - 2.8 - - - - - - -
23/02:00am 27.7 N 14 21 1007.4 - 2.8 - - - - - - -
23/01:30am 28.0 N 11 14 1007.7 - 2.8 - - - - - - -
23/01:00am 28.1 N 9 12 1007.9 - 2.8 - - - - - - -
23/12:30am 27.9 N 8 13 1008.4 - 2.6 - - - - - - -
23/12:00am 27.8 N 9 12 1008.7 - 2.6 - - - - - - -
 
Date/Time
WST
Temp
°C
Wind Pressure Rain since
9am
mm
Weather Cloud Vis
km
Sea
Height
m
Swell
Dir  Spd
kts
Gust
kts
hPa Trend Height
m
Period
s
Dir
22/11:30pm 28.3 N 10 14 1008.9 - 2.6 - - - - - - -
22/11:00pm 28.4 N 10 13 1008.9 - 2.6 - - - - - - -
22/10:30pm 28.0 N 7 10 1009.1 - 2.4 - - - - - - -
22/10:00pm 28.1 NNE 7 10 1009.5 - 2.4 - - - - - - -

Other Formats:

Comma delimited format used in spreadsheet applications
http://www.bom.gov.au/fwo/IDW60701/IDW60701.95205.axf

JavaScript Object Notation format (JSON) in row-major order
http://www.bom.gov.au/fwo/IDW60701/IDW60701.95205.json